• Join FlightAware (Why Join?)
  • Login
  • US Flag 
05:52AM EDT


 

Airport Tracker/Info


-or-


 

Live Flight TrackerFlight Track Log ✈ AAL1278 ✈ 27-Jun-2013 ✈ KLAX - KORD

Flight Track Log - Related Links

Times and Time Zones

All times are in EDT time to prevent confusion due to time zone crossing. See the AAL1278 flight status page for this flight to view local times or setup timezone preferences in your user account.

Time Position Orientation Groundspeed Altitude Reporting Facility
EDT Latitude Longitude Course Direction KTS MPH feet Rate Location/Type
07:40PM 33.9360 -118.4140 262° West 176 203 800  Level FlightAware
07:41PM 33.9350 -118.4250 264° West 184 212 1,400 1,920 Climbing FlightAware
07:41PM 33.9330 -118.4530 265° West 207 238 2,100 1,740 Climbing FlightAware
07:42PM 33.9250 -118.4930 256° West 245 282 3,000 2,460 Climbing FlightAware
07:42PM 33.9130 -118.5300 249° West 243 280 4,600 3,120 Climbing FlightAware
07:42PM 33.9070 -118.5400 234° Southwest 241 277 5,100 2,880 Climbing FlightAware
07:43PM 33.8940 -118.5510 215° Southwest 240 276 5,800 2,640 Climbing FlightAware
07:43PM 33.8810 -118.5540 191° South 246 283 6,200 1,980 Climbing FlightAware
07:43PM 33.8640 -118.5500 169° South 250 288 6,800 2,400 Climbing FlightAware
07:43PM 33.8520 -118.5370 138° Southeast 252 290 7,400 3,600 Climbing FlightAware
07:43PM 33.8480 -118.5140 102° East 249 287 8,300 3,120 Climbing FlightAware
07:44PM 33.8750 -118.4760 49° Northeast 261 300 9,800 1,800 Climbing FlightAware
07:45PM 33.9240 -118.4390 32° Northeast 313 360 10,600 1,200 Climbing FlightAware
07:45PM 33.9510 -118.4030 48° Northeast 334 384 11,200 2,100 Climbing FlightAware
07:46PM 33.9890 -118.3340 56° Northeast 345 397 13,100 2,400 Climbing FlightAware
07:47PM 34.0260 -118.2670 56° Northeast 362 417 14,600 2,220 Climbing FlightAware
07:47PM 34.0620 -118.2050 55° Northeast 372 428 16,000 2,100 Climbing FlightAware
07:48PM 34.1070 -118.1280 55° Northeast 386 444 17,500 2,160 Climbing FlightAware
07:49PM 34.1500 -118.0480 57° Northeast 391 450 19,200 2,220 Climbing FlightAware
07:49PM 34.1870 -117.9820 56° Northeast 398 458 20,500 2,100 Climbing FlightAware
07:50PM 34.2350 -117.8960 56° Northeast 404 465 22,100 2,100 Climbing FlightAware
07:51PM 34.2820 -117.8140 55° Northeast 406 467 23,700 1,920 Climbing FlightAware
07:51PM 34.3280 -117.7340 55° Northeast 413 475 24,900 1,680 Climbing FlightAware
07:52PM 34.3700 -117.6540 58° Northeast 417 480 26,100 1,500 Climbing FlightAware
07:53PM 34.4130 -117.5780 56° Northeast 428 493 27,000 1,260 Climbing FlightAware
07:53PM 34.4690 -117.4950 51° Northeast 439 505 27,900 720 Climbing FlightAware
07:54PM 34.5240 -117.4200 48° Northeast 442 509 28,000 60 Climbing FlightAware
07:55PM 34.5570 -117.3730 50° Northeast 440 506 28,000  Level FlightAware
07:55PM 34.6180 -117.2880 49° Northeast 440 506 28,000  Level FlightAware
07:56PM 34.6750 -117.2070 49° Northeast 441 507 28,000  Level FlightAware
07:57PM 34.7260 -117.1350 49° Northeast 443 510 28,000  Level FlightAware
07:57PM 34.7850 -117.0520 49° Northeast 444 511 28,000 60 Level FlightAware
07:58PM 34.8330 -116.9830 50° Northeast 446 513 28,100 240 Climbing FlightAware
07:59PM 34.8870 -116.9060 49° Northeast 446 513 28,400 180 Climbing FlightAware
08:00PM 34.9400 -116.8320 49° Northeast 446 513 28,400  Level FlightAware
08:00PM 34.9820 -116.7740 49° Northeast 446 513 28,400  Level FlightAware
08:01PM 35.0370 -116.6960 49° Northeast 446 513 28,400  Level FlightAware
08:02PM 35.0780 -116.6380 49° Northeast 446 513 28,400 2,520 Level FlightAware
08:04PM 35.2950 -116.3190 50° Northeast 457 526 35,400 2,640 Climbing FlightAware
08:04PM 35.3520 -116.2360 50° Northeast 457 526 36,000 420 Climbing FlightAware
08:05PM 35.3980 -116.1710 49° Northeast 457 526 36,000 660 Level FlightAware
08:06PM 35.4760 -116.0550 50° Northeast 458 527 37,000 600 Climbing FlightAware
08:07PM 35.5300 -115.9730 51° Northeast 457 526 37,000  Level FlightAware
08:07PM 35.5780 -115.8960 53° Northeast 457 526 37,000  Level FlightAware
08:08PM 35.6350 -115.8050 52° Northeast 457 526 37,000  Level FlightAware
08:09PM 35.6900 -115.7180 52° Northeast 455 524 37,000  Level FlightAware
08:09PM 35.7450 -115.6300 52° Northeast 454 522 37,000  Level FlightAware
08:10PM 35.7990 -115.5450 52° Northeast 453 521 37,000  Level FlightAware
08:11PM 35.8660 -115.4370 53° Northeast 452 520 37,000  Level FlightAware
08:12PM 35.9210 -115.3490 52° Northeast 451 519 37,000  Level FlightAware
08:12PM 35.9770 -115.2600 52° Northeast 451 519 37,000  Level FlightAware
08:13PM 36.0330 -115.1690 53° Northeast 451 519 37,000  Level FlightAware
08:14PM 36.0760 -115.0990 53° Northeast 451 519 37,000  Level FlightAware
08:15PM 36.1360 -115.0020 53° Northeast 451 519 37,000  Level FlightAware
08:15PM 36.1880 -114.9170 53° Northeast 449 517 37,000  Level FlightAware
08:16PM 36.2420 -114.8290 53° Northeast 449 517 37,000  Level FlightAware
08:17PM 36.2940 -114.7440 53° Northeast 449 517 37,000  Level FlightAware
08:17PM 36.3470 -114.6580 53° Northeast 449 517 37,000  Level FlightAware
08:18PM 36.4030 -114.5660 53° Northeast 450 518 37,000  Level FlightAware
08:19PM 36.4500 -114.4890 53° Northeast 450 518 37,000  Level FlightAware
08:19PM 36.5010 -114.4050 53° Northeast 450 518 37,000  Level FlightAware
08:20PM 36.5580 -114.3110 53° Northeast 451 519 37,000  Level FlightAware
08:21PM 36.6070 -114.2290 53° Northeast 452 520 37,000  Level FlightAware
08:21PM 36.6610 -114.1410 53° Northeast 452 520 37,000  Level FlightAware
08:22PM 36.7160 -114.0490 53° Northeast 453 521 37,000  Level FlightAware
08:23PM 36.7630 -113.9700 53° Northeast 453 521 37,000  Level FlightAware
08:24PM 36.8200 -113.8740 53° Northeast 455 524 37,000  Level FlightAware
08:24PM 36.8710 -113.7890 53° Northeast 456 525 37,000  Level FlightAware
08:25PM 36.9270 -113.6940 54° Northeast 456 525 37,000  Level FlightAware
08:26PM 36.9720 -113.6180 53° Northeast 457 526 37,000  Level FlightAware
08:26PM 37.0240 -113.5300 53° Northeast 457 526 37,000  Level FlightAware
08:27PM 37.0850 -113.4280 53° Northeast 457 526 37,000  Level FlightAware
08:28PM 37.1340 -113.3440 54° Northeast 457 526 37,000  Level FlightAware
08:28PM 37.1870 -113.2540 54° Northeast 453 521 37,000  Level FlightAware
08:29PM 37.2340 -113.1750 53° Northeast 453 521 37,000  Level FlightAware
08:30PM 37.2740 -113.1090 53° Northeast 453 521 37,000  Level FlightAware
08:31PM 37.3240 -113.0250 53° Northeast 453 521 37,000  Level FlightAware
08:31PM 37.3640 -112.9590 53° Northeast 453 521 37,000  Level FlightAware
08:32PM 37.4150 -112.8730 53° Northeast 453 521 37,000  Level FlightAware
08:33PM 37.4550 -112.8060 53° Northeast 453 521 37,000  Level FlightAware
08:33PM 37.5060 -112.7200 53° Northeast 453 521 37,000  Level FlightAware
08:34PM 37.5450 -112.6560 52° Northeast 453 521 37,000  Level FlightAware
08:35PM 37.6070 -112.5510 53° Northeast 453 521 37,000  Level FlightAware
08:36PM 37.6490 -112.4810 53° Northeast 453 521 37,000  Level FlightAware
08:36PM 37.7010 -112.3930 53° Northeast 453 521 37,000  Level FlightAware
08:37PM 37.7410 -112.3270 53° Northeast 453 521 37,000  Level FlightAware
08:38PM 37.8050 -112.2190 53° Northeast 453 521 37,000  Level FlightAware
08:42PM 38.1562 -111.5560 56° Northeast 449 517 37,000  Level FlightAware ADS-B
08:42PM 38.2034 -111.4710 55° Northeast 451 519 37,000  Level FlightAware ADS-B
08:43PM 38.2396 -111.4060 55° Northeast 453 521 37,000  Level FlightAware ADS-B
08:44PM 38.2801 -111.3330 55° Northeast 454 522 37,000  Level FlightAware ADS-B
08:44PM 38.3250 -111.2510 55° Northeast 455 524 37,000  Level FlightAware
08:44PM 38.3481 -111.2090 55° Northeast 454 522 37,000  Level FlightAware ADS-B
08:45PM 38.3873 -111.1380 55° Northeast 455 524 37,000  Level FlightAware ADS-B
08:46PM 38.4355 -111.0500 55° Northeast 455 524 37,000  Level FlightAware ADS-B
08:46PM 38.4640 -110.9980 55° Northeast 451 519 37,000  Level FlightAware
08:47PM 38.5360 -110.8660 55° Northeast 451 519 37,000  Level FlightAware
08:48PM 38.6120 -110.7260 55° Northeast 450 518 37,000  Level FlightAware
08:49PM 38.6530 -110.6510 55° Northeast 450 518 37,000  Level FlightAware
08:50PM 38.7080 -110.5490 55° Northeast 451 519 37,000  Level FlightAware
08:50PM 38.7640 -110.4450 55° Northeast 451 519 37,000  Level FlightAware
08:51PM 38.8130 -110.3530 56° Northeast 451 519 37,000  Level FlightAware
08:52PM 38.8650 -110.2570 55° Northeast 451 519 37,000  Level FlightAware
08:52PM 38.9130 -110.1670 56° Northeast 451 519 37,000  Level FlightAware
08:53PM 38.9800 -110.0410 56° Northeast 449 517 37,000  Level FlightAware
08:54PM 39.0200 -109.9650 56° Northeast 448 516 37,000  Level FlightAware
08:55PM 39.0640 -109.8820 56° Northeast 447 514 37,000  Level FlightAware
08:55PM 39.1230 -109.7700 56° Northeast 447 514 37,000  Level FlightAware
08:56PM 39.1680 -109.6860 55° Northeast 447 514 37,000  Level FlightAware
08:57PM 39.2190 -109.5880 56° Northeast 447 514 37,000  Level FlightAware
08:58PM 39.2690 -109.4920 56° Northeast 447 514 37,000  Level FlightAware
08:58PM 39.3120 -109.4100 56° Northeast 447 514 37,000  Level FlightAware
08:59PM 39.3830 -109.2730 56° Northeast 447 514 37,000  Level FlightAware
09:00PM 39.4320 -109.1780 56° Northeast 448 516 37,000  Level FlightAware
09:01PM 39.5090 -109.0290 56° Northeast 449 517 37,000  Level FlightAware
09:02PM 39.5630 -108.9250 56° Northeast 449 517 37,000  Level FlightAware
09:02PM 39.6110 -108.8300 57° Northeast 450 518 37,000  Level FlightAware
09:03PM 39.6560 -108.7420 56° Northeast 450 518 37,000  Level FlightAware
09:04PM 39.7090 -108.6390 56° Northeast 451 519 37,000  Level FlightAware
09:05PM 39.7660 -108.5250 57° Northeast 452 520 37,000  Level FlightAware
09:06PM 39.8330 -108.3930 57° Northeast 453 521 37,000  Level FlightAware
09:07PM 39.8980 -108.2640 57° Northeast 452 520 37,000  Level FlightAware
09:08PM 40.0060 -108.0490 57° Northeast 453 521 37,000  Level FlightAware
09:09PM 40.0550 -107.9490 57° Northeast 453 521 37,000  Level FlightAware
09:10PM 40.0980 -107.8550 59° Northeast 453 521 37,000  Level FlightAware
09:10PM 40.1470 -107.7430 60° Northeast 454 522 37,000  Level FlightAware
09:11PM 40.1900 -107.6480 59° Northeast 454 522 37,000  Level FlightAware
09:12PM 40.2370 -107.5410 60° Northeast 454 522 37,000  Level FlightAware
09:12PM 40.2790 -107.4440 60° Northeast 454 522 37,000  Level FlightAware
09:13PM 40.3220 -107.3440 61° Northeast 455 524 37,000  Level FlightAware
09:14PM 40.3660 -107.2420 60° Northeast 455 524 37,000  Level FlightAware
09:15PM 40.4240 -107.1080 60° Northeast 455 524 37,000  Level FlightAware
09:15PM 40.4600 -107.0230 61° Northeast 455 524 37,000  Level FlightAware
09:16PM 40.5010 -106.9280 60° Northeast 455 524 37,000  Level FlightAware
09:17PM 40.5500 -106.8150 60° Northeast 454 522 37,000  Level FlightAware
09:18PM 40.5930 -106.7130 61° Northeast 454 522 37,000  Level FlightAware
09:18PM 40.6280 -106.6320 60° Northeast 454 522 37,000  Level FlightAware
09:19PM 40.6710 -106.5340 60° Northeast 454 522 37,000  Level FlightAware
09:20PM 40.7140 -106.4270 62° Northeast 453 521 37,000  Level FlightAware
09:20PM 40.7660 -106.3020 61° Northeast 452 520 37,000  Level FlightAware
09:21PM 40.8110 -106.1960 61° Northeast 453 521 37,000  Level FlightAware
09:22PM 40.8490 -106.1030 62° Northeast 455 524 37,000  Level FlightAware
09:23PM 40.8960 -105.9900 61° Northeast 454 522 37,000  Level FlightAware
09:23PM 40.9390 -105.8870 61° Northeast 455 524 37,000  Level FlightAware
09:24PM 40.9800 -105.7880 61° Northeast 455 524 37,000  Level FlightAware
09:25PM 41.0150 -105.7020 62° Northeast 454 522 37,000  Level FlightAware
09:25PM 41.0620 -105.5880 61° Northeast 454 522 37,000  Level FlightAware
09:26PM 41.1050 -105.4820 62° Northeast 454 522 37,000  Level FlightAware
09:27PM 41.1500 -105.3730 61° Northeast 456 525 37,000  Level FlightAware
09:27PM 41.1900 -105.2750 62° Northeast 457 526 37,000  Level FlightAware
09:28PM 41.2370 -105.1570 62° Northeast 459 528 37,000  Level FlightAware ADS-B
09:29PM 41.2685 -105.0790 62° Northeast 457 526 37,000  Level FlightAware ADS-B
09:29PM 41.2986 -105.0050 62° Northeast 457 526 37,000  Level FlightAware ADS-B
09:30PM 41.3350 -104.9140 62° Northeast 457 526 37,000  Level FlightAware ADS-B
09:30PM 41.3666 -104.8360 62° Northeast 456 525 37,000  Level FlightAware ADS-B
09:31PM 41.3968 -104.7590 62° Northeast 458 527 37,000  Level FlightAware ADS-B
09:31PM 41.4288 -104.6780 62° Northeast 458 527 37,000  Level FlightAware ADS-B
09:32PM 41.4585 -104.6030 62° Northeast 458 527 37,000  Level FlightAware ADS-B
09:32PM 41.4901 -104.5230 62° Northeast 458 527 37,000  Level FlightAware ADS-B
09:33PM 41.5199 -104.4480 62° Northeast 457 526 37,000  Level FlightAware ADS-B
09:33PM 41.5498 -104.3720 62° Northeast 456 525 37,000  Level FlightAware ADS-B
09:34PM 41.5792 -104.2970 62° Northeast 457 526 37,000  Level FlightAware ADS-B
09:35PM 41.6096 -104.2190 62° Northeast 457 526 37,000  Level FlightAware ADS-B
09:35PM 41.6390 -104.1440 62° Northeast 458 527 37,000  Level FlightAware ADS-B
09:36PM 41.6685 -104.0680 63° Northeast 460 529 37,000  Level FlightAware ADS-B
09:36PM 41.6984 -103.9910 63° Northeast 462 532 37,000  Level FlightAware ADS-B
09:37PM 41.7307 -103.9080 62° Northeast 462 532 37,000  Level FlightAware ADS-B
09:37PM 41.7649 -103.8190 63° Northeast 462 532 37,000  Level FlightAware ADS-B
09:38PM 41.8003 -103.7270 63° Northeast 462 532 37,000  Level FlightAware ADS-B
09:38PM 41.8330 -103.6420 63° Northeast 461 531 37,000  Level FlightAware ADS-B
09:39PM 41.8727 -103.5380 63° Northeast 461 531 37,000  Level FlightAware ADS-B
09:39PM 41.8871 -103.4930 67° East 464 534 37,000  Level FlightAware ADS-B
09:39PM 41.8949 -103.4610 72° East 465 535 37,000  Level FlightAware ADS-B
09:40PM 41.9038 -103.4140 76° East 468 539 37,000  Level FlightAware ADS-B
09:40PM 41.9159 -103.3280 79° East 469 540 37,000  Level FlightAware ADS-B
09:41PM 41.9280 -103.2410 79° East 469 540 37,000  Level FlightAware ADS-B
09:41PM 41.9400 -103.1550 79° East 468 539 37,000  Level FlightAware ADS-B
09:42PM 41.9528 -103.0640 79° East 468 539 37,000  Level FlightAware ADS-B
09:42PM 41.9658 -102.9710 79° East 470 541 37,000  Level FlightAware ADS-B
09:43PM 41.9782 -102.8810 79° East 467 537 37,000  Level FlightAware ADS-B
09:43PM 41.9903 -102.7910 80° East 465 535 37,000  Level FlightAware ADS-B
09:44PM 42.0018 -102.7050 80° East 465 535 37,000  Level FlightAware ADS-B
09:44PM 42.0134 -102.6190 80° East 468 539 37,000  Level FlightAware ADS-B
09:45PM 42.0289 -102.5040 80° East 468 539 37,000  Level FlightAware ADS-B
09:46PM 42.0468 -102.3680 80° East 470 541 37,000  Level FlightAware ADS-B
09:46PM 42.0582 -102.2820 80° East 473 544 37,000  Level FlightAware ADS-B
09:47PM 42.0749 -102.1520 80° East 474 545 37,000  Level FlightAware ADS-B
09:48PM 42.0945 -102.0040 80° East 476 548 37,000  Level FlightAware ADS-B
09:48PM 42.1061 -101.9150 80° East 476 548 37,000  Level FlightAware ADS-B
09:49PM 42.1204 -101.8000 80° East 474 545 37,000  Level FlightAware ADS-B
09:50PM 42.1326 -101.7020 80° East 472 543 37,000  Level FlightAware ADS-B
09:51PM 42.1608 -101.4697 80° East 472 543 37,000  Level Minneapolis Center
09:57PM 42.2862 -100.4210 80° East 473 544 37,000  Level FlightAware ADS-B
10:00PM 42.3376 -99.9634 81° East 473 544 37,000  Level FlightAware ADS-B
10:00PM 42.3473 -99.8748 82° East 475 547 37,000  Level FlightAware ADS-B
10:01PM 42.3570 -99.7842 82° East 476 548 37,000  Level FlightAware ADS-B
10:01PM 42.3666 -99.6960 82° East 478 550 37,000  Level FlightAware ADS-B
10:02PM 42.3761 -99.6072 82° East 479 551 37,000  Level FlightAware ADS-B
10:02PM 42.3855 -99.5183 82° East 481 554 37,000  Level FlightAware ADS-B
10:05PM 42.4306 -99.0840 82° East 484 557 37,000  Level FlightAware ADS-B
10:05PM 42.4399 -98.9940 82° East 484 557 37,000  Level FlightAware ADS-B
10:06PM 42.4490 -98.9044 82° East 483 556 37,000  Level FlightAware ADS-B
10:06PM 42.4580 -98.8144 82° East 482 555 37,000  Level FlightAware ADS-B
10:08PM 42.4766 -98.5649 84° East 482 555 37,000  Level FlightAware ADS-B
10:08PM 42.4812 -98.4733 86° East 485 558 37,000  Level FlightAware ADS-B
10:09PM 42.4857 -98.3820 86° East 485 558 37,000  Level FlightAware ADS-B
10:09PM 42.4902 -98.2900 86° East 486 559 37,000  Level FlightAware ADS-B
10:10PM 42.4945 -98.1989 86° East 488 562 37,000  Level FlightAware ADS-B
10:10PM 42.4988 -98.1073 86° East 489 563 37,000  Level FlightAware ADS-B
10:11PM 42.5029 -98.0155 87° East 487 560 37,000  Level FlightAware ADS-B
10:11PM 42.5070 -97.9245 86° East 486 559 37,000  Level FlightAware ADS-B
10:12PM 42.5111 -97.8324 87° East 486 559 37,000  Level FlightAware ADS-B
10:12PM 42.5151 -97.7411 87° East 485 558 37,000  Level FlightAware ADS-B
10:13PM 42.5190 -97.6497 87° East 485 558 37,000  Level FlightAware ADS-B
10:13PM 42.5228 -97.5590 87° East 485 558 37,000  Level FlightAware ADS-B
10:14PM 42.5264 -97.4681 87° East 485 558 37,000  Level FlightAware ADS-B
10:14PM 42.5301 -97.3767 87° East 485 558 37,000  Level FlightAware ADS-B
10:15PM 42.5338 -97.2846 87° East 486 559 37,000  Level FlightAware ADS-B
10:15PM 42.5373 -97.1925 87° East 487 560 37,000  Level FlightAware ADS-B
10:16PM 42.5407 -97.1008 87° East 486 559 37,000  Level FlightAware ADS-B
10:16PM 42.5441 -97.0096 87° East 486 559 37,000  Level FlightAware ADS-B
10:17PM 42.5476 -96.9127 87° East 485 558 37,000  Level FlightAware ADS-B
10:17PM 42.5511 -96.8154 87° East 486 559 37,000  Level FlightAware ADS-B
10:18PM 42.5544 -96.7222 87° East 487 560 37,000  Level FlightAware ADS-B
10:18PM 42.5574 -96.6301 87° East 488 562 37,000  Level FlightAware ADS-B
10:19PM 42.5604 -96.5358 87° East 490 564 37,000  Level FlightAware ADS-B
10:19PM 42.5637 -96.4311 88° East 492 566 37,000  Level FlightAware ADS-B
10:20PM 42.5666 -96.3385 88° East 492 566 37,000  Level FlightAware ADS-B
10:20PM 42.5695 -96.2434 88° East 493 567 37,000  Level FlightAware ADS-B
10:21PM 42.5722 -96.1498 88° East 494 568 37,000  Level FlightAware ADS-B
10:21PM 42.5748 -96.0570 88° East 492 566 37,000  Level FlightAware ADS-B
10:22PM 42.5776 -95.9641 88° East 490 564 37,000  Level FlightAware ADS-B
10:22PM 42.5801 -95.8716 88° East 489 563 37,000  Level FlightAware ADS-B
10:23PM 42.5825 -95.7792 88° East 487 560 37,000  Level FlightAware ADS-B
10:23PM 42.5849 -95.6868 88° East 486 559 37,000  Level FlightAware ADS-B
10:24PM 42.5873 -95.5907 88° East 486 559 37,000  Level FlightAware ADS-B
10:24PM 42.5895 -95.4978 88° East 487 560 37,000  Level FlightAware ADS-B
10:25PM 42.5918 -95.3943 88° East 487 560 37,000  Level FlightAware ADS-B
10:25PM 42.5939 -95.2981 88° East 486 559 37,000  Level FlightAware ADS-B
10:26PM 42.5959 -95.2052 88° East 487 560 37,000  Level FlightAware ADS-B
10:26PM 42.5977 -95.1117 88° East 488 562 37,000  Level FlightAware ADS-B
10:27PM 42.5996 -95.0178 88° East 489 563 37,000  Level FlightAware ADS-B
10:27PM 42.6012 -94.9239 89° East 491 565 37,000  Level FlightAware ADS-B
10:28PM 42.6028 -94.8307 89° East 492 566 37,000  Level FlightAware ADS-B
10:28PM 42.6045 -94.7371 89° East 491 565 37,000  Level FlightAware ADS-B
10:29PM 42.6063 -94.6438 88° East 490 564 37,000  Level FlightAware ADS-B
10:29PM 42.6079 -94.5507 89° East 490 564 37,000  Level FlightAware ADS-B
10:30PM 42.6092 -94.4560 89° East 490 564 37,000  Level FlightAware ADS-B
10:31PM 42.6105 -94.3621 89° East 491 565 37,000  Level FlightAware ADS-B
10:31PM 42.6112 -94.2960 89° East 491 565 37,000  Level FlightAware ADS-B
10:31PM 42.6084 -94.1995 92° East 493 567 37,000  Level FlightAware ADS-B
10:32PM 42.6047 -94.0777 92° East 493 567 37,000  Level FlightAware ADS-B
10:33PM 42.6014 -93.9748 92° East 492 566 37,000  Level FlightAware ADS-B
10:33PM 42.5984 -93.8815 92° East 492 566 37,000  Level FlightAware ADS-B
10:34PM 42.5953 -93.7890 93° East 493 567 37,000  Level FlightAware ADS-B
10:34PM 42.5921 -93.6948 93° East 495 570 37,000  Level FlightAware ADS-B
10:35PM 42.5870 -93.5570 93° East 494 568 37,000  Level FlightAware
10:36PM 42.5820 -93.4260 93° East 495 570 37,000  Level FlightAware
10:36PM 42.5770 -93.2880 93° East 495 570 37,000  Level FlightAware
10:37PM 42.5730 -93.1660 93° East 495 570 37,000  Level FlightAware
10:38PM 42.5680 -93.0410 93° East 495 570 37,000  Level FlightAware
10:38PM 42.5620 -92.9050 93° East 494 568 37,000  Level FlightAware
10:39PM 42.5560 -92.7710 93° East 494 568 37,000 -180 Level FlightAware
10:40PM 42.5510 -92.6410 93° East 490 564 36,800 -1,740 Descending FlightAware
10:40PM 42.5450 -92.5200 94° East 502 578 34,700 -2,820 Descending FlightAware
10:41PM 42.5390 -92.3920 94° East 509 586 33,100 -1,560 Descending FlightAware
10:42PM 42.5330 -92.2480 93° East 508 585 32,500 -780 Descending FlightAware
10:43PM 42.5260 -92.1150 94° East 507 583 32,000 -960 Descending FlightAware
10:43PM 42.5240 -91.9730 91° East 505 581 31,200 -1,080 Descending FlightAware
10:44PM 42.5250 -91.8600 89° East 505 581 30,600 -1,200 Descending FlightAware
10:44PM 42.5260 -91.7600 89° East 510 587 29,900 -480 Descending FlightAware
10:48PM 42.5270 -91.1690 90° East 532 612 29,000 -240 Descending FlightAware
10:48PM 42.5260 -90.9940 90° East 532 612 29,000  Level FlightAware
10:49PM 42.5260 -90.8410 90° East 534 615 29,000  Level FlightAware
10:50PM 42.5260 -90.7170 90° East 535 616 29,000  Level FlightAware
10:50PM 42.5250 -90.5650 90° East 537 618 29,000  Level FlightAware
10:51PM 42.5240 -90.4270 91° East 538 619 29,000  Level FlightAware
10:52PM 42.5230 -90.2960 91° East 539 620 29,000  Level FlightAware
10:53PM 42.5220 -90.1500 90° East 540 621 29,000 -240 Level FlightAware
10:53PM 42.5210 -90.0080 90° East 533 613 28,700 -2,100 Descending FlightAware
10:54PM 42.5190 -89.8770 91° East 527 606 26,200 -3,300 Descending FlightAware
10:55PM 42.5170 -89.7480 91° East 507 583 24,300 -2,460 Descending FlightAware
10:55PM 42.5160 -89.6580 91° East 487 560 23,500 -2,100 Descending FlightAware
10:56PM 42.5150 -89.5200 91° East 471 542 21,800 -2,220 Descending FlightAware
10:56PM 42.5130 -89.4090 91° East 460 529 20,400 -2,220 Descending FlightAware
10:57PM 42.5110 -89.2860 91° East 445 512 18,800 -2,100 Descending FlightAware
10:58PM 42.5090 -89.1600 91° East 426 490 17,300 -1,980 Descending FlightAware
10:59PM 42.5080 -89.0540 91° East 419 482 16,000 -1,860 Descending FlightAware
10:59PM 42.5040 -88.9360 93° East 412 474 14,700 -1,560 Descending FlightAware
11:03PM 42.3730 -88.4940 112° Southeast 315 362 9,500 -1,440 Descending FlightAware
11:03PM 42.3590 -88.4460 112° Southeast 306 352 9,200 -360 Descending FlightAware
11:04PM 42.3430 -88.3890 111° Southeast 305 351 9,200 -240 Level FlightAware
11:04PM 42.3300 -88.3380 109° East 300 345 9,000 -480 Descending FlightAware
11:04PM 42.3240 -88.3210 116° Southeast 302 348 8,900 -900 Descending FlightAware
11:05PM 42.3090 -88.2950 128° Southeast 302 348 8,600 -1,200 Descending FlightAware
11:05PM 42.2840 -88.2660 139° Southeast 298 343 8,100 -1,140 Descending FlightAware
11:06PM 42.2530 -88.2320 141° Southeast 292 336 7,600 -960 Descending FlightAware
11:06PM 42.2240 -88.1980 139° Southeast 278 320 7,200 -540 Descending FlightAware
11:07PM 42.1970 -88.1670 140° Southeast 243 280 7,100 -1,080 Descending FlightAware
11:07PM 42.1740 -88.1400 139° Southeast 249 287 6,200 -2,040 Descending FlightAware
11:07PM 42.1500 -88.1130 140° Southeast 258 297 5,300 -1,920 Descending FlightAware
11:08PM 42.1340 -88.0960 142° Southeast 249 287 4,800 -1,740 Descending FlightAware
11:08PM 42.1110 -88.0690 139° Southeast 239 275 4,000 -1,500 Descending FlightAware
11:08PM 42.1010 -88.0590 143° Southeast 231 266 3,800 -1,320 Descending FlightAware
11:09PM 42.0770 -88.0300 138° Southeast 220 253 3,100 -1,260 Descending FlightAware
11:09PM 42.0550 -88.0060 141° Southeast 209 241 2,600 -1,140 Descending FlightAware
11:10PM 42.0410 -87.9900 140° Southeast 202 232 2,200 -1,140 Descending FlightAware
11:10PM 42.0310 -87.9790 141° Southeast 193 222 2,000 -1,080 Descending FlightAware
11:10PM 42.0100 -87.9550 140° Southeast 181 208 1,400 -1,020 Descending FlightAware
11:11PM 41.9930 -87.9360 140° Southeast 173 199 1,000 -900 Descending FlightAware
11:11PM 41.9780 -87.9190 140° Southeast 105 121 -2,040 Descending FlightAware